Time;durP1;ratioP1;P1;durP2;ratioP2;P2;SDS_P1;SDS_P2;PMS_P1;PMS_P2;Temp;Humidity;BMP_temperature;BMP_pressure;BME280_temperature;BME280_humidity;BME280_pressure;Samples;Min_cycle;Max_cycle;Signal;HPM_P1;HPM_P2
2022/02/04 00:27:49;;;;;;;;;;;12.20;54.90;;;;;;5165737;27;19975;-69
2022/02/04 00:30:24;;;;;;;;;;;12.10;54.90;;;;;;5165659;27;19942;-69
2022/02/04 00:32:51;;;;;;;;;;;12.20;55.00;;;;;;5165665;27;19974;-70
2022/02/04 00:35:29;;;;;;;;;;;12.20;55.00;;;;;;5165581;27;19903;-69
2022/02/04 00:40:26;;;;;;;;;;;12.20;55.00;;;;;;5165638;27;19915;-69
2022/02/04 00:42:55;;;;;;;;;;;12.20;54.90;;;;;;5165461;27;19946;-69
2022/02/04 00:45:31;;;;;;;;;;;12.20;54.90;;;;;;5165497;27;19934;-70
2022/02/04 00:48:48;;;;;;;;;;;12.20;54.90;;;;;;5165339;27;20240;-70
2022/02/04 00:50:57;;;;;;;;;;;12.20;54.90;;;;;;5154039;27;19903;-69
2022/02/04 00:53:41;;;;;;;;;;;12.10;54.80;;;;;;5165230;27;19935;-70
2022/02/04 01:26:09;;;;;;;;;;;12.10;54.90;;;;;;5164670;27;19918;-70
2022/02/04 01:28:36;;;;;;;;;;;12.10;54.90;;;;;;5164506;27;19955;-70
2022/02/04 01:31:02;;;;;;;;;;;12.10;54.90;;;;;;5164037;27;19946;-70
2022/02/04 01:33:28;;;;;;;;;;;12.10;54.80;;;;;;5164414;27;19912;-69
2022/02/04 01:35:55;;;;;;;;;;;12.10;54.80;;;;;;5164363;27;19917;-69
2022/02/04 01:38:22;;;;;;;;;;;12.10;54.80;;;;;;5164354;27;19922;-69
2022/02/04 01:40:49;;;;;;;;;;;12.10;54.90;;;;;;5164378;27;19903;-69
2022/02/04 01:43:20;;;;;;;;;;;12.10;54.80;;;;;;5164247;27;19993;-69
2022/02/04 01:45:46;;;;;;;;;;;12.10;54.90;;;;;;5164160;27;19911;-69
2022/02/04 01:48:12;;;;;;;;;;;12.10;54.90;;;;;;5164146;27;19903;-69
2022/02/04 01:50:37;;;;;;;;;;;12.10;55.00;;;;;;5163760;27;19903;-69
2022/02/04 01:53:04;;;;;;;;;;;12.10;55.00;;;;;;5164088;27;19983;-70
2022/02/04 01:55:30;;;;;;;;;;;12.10;55.00;;;;;;5164067;27;20011;-69
2022/02/04 01:57:56;;;;;;;;;;;12.10;55.00;;;;;;5163993;27;20002;-70
2022/02/04 02:00:22;;;;;;;;;;;12.20;54.90;;;;;;5163711;27;19930;-69
2022/02/04 02:02:49;;;;;;;;;;;12.10;54.80;;;;;;5163907;27;19903;-70
2022/02/04 02:05:14;;;;;;;;;;;12.10;54.70;;;;;;5163761;27;19952;-69
2022/02/04 02:07:45;;;;;;;;;;;12.10;54.90;;;;;;5163756;27;19911;-70
2022/02/04 02:10:14;;;;;;;;;;;12.10;54.80;;;;;;5145170;27;19915;-69
2022/02/04 02:13:10;;;;;;;;;;;12.10;54.70;;;;;;5163689;27;19911;-69
2022/02/04 02:15:39;;;;;;;;;;;12.10;54.80;;;;;;5162231;27;19907;-69
2022/02/04 02:58:13;;;;;;;;;;;12.10;54.80;;;;;;5163061;27;19932;-71
2022/02/04 03:02:35;;;;;;;;;;;12.10;54.90;;;;;;5162609;27;19915;-70
2022/02/04 03:05:01;;;;;;;;;;;12.10;55.00;;;;;;5162682;27;20084;-70
2022/02/04 03:07:27;;;;;;;;;;;12.10;54.90;;;;;;5162566;27;19903;-69
2022/02/04 03:09:52;;;;;;;;;;;12.10;55.00;;;;;;5162512;27;20096;-69
2022/02/04 03:12:18;;;;;;;;;;;12.10;55.00;;;;;;5162453;27;19915;-69
2022/02/04 03:14:43;;;;;;;;;;;12.10;54.80;;;;;;5162396;27;19949;-69
2022/02/04 03:17:12;;;;;;;;;;;12.10;54.90;;;;;;5162711;27;19996;-69
2022/02/04 03:19:39;;;;;;;;;;;12.10;54.90;;;;;;5162263;27;19915;-69
2022/02/04 03:22:10;;;;;;;;;;;12.10;54.70;;;;;;5162268;27;20092;-70
2022/02/04 03:24:35;;;;;;;;;;;12.10;54.80;;;;;;5143686;27;19911;-70
2022/02/04 03:27:07;;;;;;;;;;;12.10;54.80;;;;;;5162264;27;20104;-69
2022/02/04 03:30:03;;;;;;;;;;;12.10;54.80;;;;;;5143633;27;20211;-69
2022/02/04 03:32:22;;;;;;;;;;;12.10;54.90;;;;;;5160952;27;19947;-69
2022/02/04 03:34:48;;;;;;;;;;;12.10;54.80;;;;;;5143522;27;19970;-68
2022/02/04 03:37:13;;;;;;;;;;;12.10;54.70;;;;;;5143477;27;19918;-68
2022/02/04 03:39:39;;;;;;;;;;;12.10;54.70;;;;;;5161930;27;19921;-69
2022/02/04 03:42:05;;;;;;;;;;;12.10;54.80;;;;;;5162030;27;19903;-70
2022/02/04 03:44:32;;;;;;;;;;;12.10;54.80;;;;;;5143377;27;20187;-69
2022/02/04 03:46:58;;;;;;;;;;;12.10;55.00;;;;;;5161896;27;19918;-69
2022/02/04 03:49:24;;;;;;;;;;;12.10;55.00;;;;;;5161938;27;20001;-69
2022/02/04 03:51:50;;;;;;;;;;;12.10;54.90;;;;;;5161906;27;19911;-69
2022/02/04 03:54:15;;;;;;;;;;;12.10;54.90;;;;;;5161595;27;19911;-70
2022/02/04 03:56:41;;;;;;;;;;;12.10;54.80;;;;;;5161888;27;19911;-69
2022/02/04 03:59:07;;;;;;;;;;;12.10;54.80;;;;;;5161554;27;19914;-69
2022/02/04 04:01:32;;;;;;;;;;;12.10;54.80;;;;;;5161679;27;19907;-68
2022/02/04 04:03:58;;;;;;;;;;;12.10;54.70;;;;;;5161765;27;19978;-69
2022/02/04 04:06:23;;;;;;;;;;;12.10;54.80;;;;;;5161753;27;19911;-69
2022/02/04 04:08:52;;;;;;;;;;;12.10;54.70;;;;;;5161710;27;19911;-71
2022/02/04 04:11:18;;;;;;;;;;;12.10;54.80;;;;;;5161663;27;19911;-68
2022/02/04 04:13:44;;;;;;;;;;;12.00;54.80;;;;;;5161644;27;19932;-69
2022/02/04 04:16:10;;;;;;;;;;;12.10;54.90;;;;;;5161661;27;20222;-69
2022/02/04 04:18:35;;;;;;;;;;;12.10;54.90;;;;;;5161494;27;20183;-69
2022/02/04 04:21:01;;;;;;;;;;;12.00;54.90;;;;;;5161670;27;20210;-69
2022/02/04 04:23:27;;;;;;;;;;;12.00;55.00;;;;;;5161552;27;20107;-69
2022/02/04 04:25:53;;;;;;;;;;;12.00;55.00;;;;;;5142931;27;19914;-69
2022/02/04 04:28:18;;;;;;;;;;;12.00;55.10;;;;;;5161494;27;19939;-69
2022/02/04 04:30:44;;;;;;;;;;;12.00;55.00;;;;;;5161384;27;19911;-69
2022/02/04 04:33:10;;;;;;;;;;;12.00;55.10;;;;;;5161424;27;19980;-69
2022/02/04 04:35:36;;;;;;;;;;;12.00;55.10;;;;;;5161446;27;19915;-69
2022/02/04 05:29:19;;;;;;;;;;;12.00;54.90;;;;;;5164487;27;19955;-70
2022/02/04 05:31:44;;;;;;;;;;;12.00;54.90;;;;;;5164469;27;19911;-70
2022/02/04 05:34:11;;;;;;;;;;;12.00;54.80;;;;;;5164402;27;19911;-69
2022/02/04 05:36:42;;;;;;;;;;;12.00;54.90;;;;;;5164271;27;19918;-70
2022/02/04 05:39:08;;;;;;;;;;;12.00;54.80;;;;;;5164238;27;20191;-69
2022/02/04 05:41:38;;;;;;;;;;;12.00;54.90;;;;;;5164222;27;19934;-69
2022/02/04 05:44:08;;;;;;;;;;;12.00;54.90;;;;;;5164174;27;19903;-69
2022/02/04 05:46:45;;;;;;;;;;;12.00;55.00;;;;;;5164428;27;20211;-69
2022/02/04 05:49:12;;;;;;;;;;;12.00;54.90;;;;;;5164169;27;20267;-70
2022/02/04 05:51:48;;;;;;;;;;;12.00;54.80;;;;;;5145378;27;19939;-69
2022/02/04 05:54:24;;;;;;;;;;;12.10;54.80;;;;;;5164037;27;19974;-70
2022/02/04 05:57:06;;;;;;;;;;;12.10;54.70;;;;;;5163988;27;19961;-70
2022/02/04 06:07:29;;;;;;;;;;;12.00;54.80;;;;;;5164043;27;19978;-70
2022/02/04 06:13:08;;;;;;;;;;;12.00;54.80;;;;;;5164001;27;19911;-70
2022/02/04 06:23:42;;;;;;;;;;;12.00;54.90;;;;;;5163500;27;20094;-70
2022/02/04 06:26:08;;;;;;;;;;;12.00;54.90;;;;;;5163348;27;19911;-70
2022/02/04 06:28:35;;;;;;;;;;;12.00;54.90;;;;;;5163390;27;20215;-70
2022/02/04 06:31:01;;;;;;;;;;;12.00;54.90;;;;;;5163326;27;19911;-71
2022/02/04 06:33:26;;;;;;;;;;;12.00;54.90;;;;;;5163167;27;20226;-70
2022/02/04 06:35:52;;;;;;;;;;;12.00;54.80;;;;;;5144492;27;19903;-70
2022/02/04 06:38:18;;;;;;;;;;;12.00;54.80;;;;;;5163069;27;19912;-70
2022/02/04 06:40:43;;;;;;;;;;;12.00;54.70;;;;;;5162968;27;19922;-70
2022/02/04 06:43:09;;;;;;;;;;;12.00;54.80;;;;;;5144374;27;20219;-69
2022/02/04 06:45:35;;;;;;;;;;;12.00;54.90;;;;;;5162941;27;19911;-70
2022/02/04 06:48:01;;;;;;;;;;;12.00;54.70;;;;;;5162923;27;19918;-70
2022/02/04 06:50:27;;;;;;;;;;;12.00;55.30;;;;;;5162789;27;19935;-70
2022/02/04 06:52:53;;;;;;;;;;;12.00;54.70;;;;;;5162891;27;19903;-70
2022/02/04 06:55:20;;;;;;;;;;;12.00;54.80;;;;;;5162821;27;19938;-70
2022/02/04 06:57:46;;;;;;;;;;;12.00;55.00;;;;;;5162666;27;19911;-70
2022/02/04 07:00:14;;;;;;;;;;;12.00;54.90;;;;;;5162601;27;19914;-69
2022/02/04 07:02:40;;;;;;;;;;;12.00;55.40;;;;;;5162594;27;19923;-70
2022/02/04 07:05:10;;;;;;;;;;;12.00;54.80;;;;;;5162527;27;19955;-70
2022/02/04 07:07:38;;;;;;;;;;;12.00;54.80;;;;;;5162584;27;20223;-72
2022/02/04 07:10:13;;;;;;;;;;;12.00;54.80;;;;;;5162448;27;19956;-69
2022/02/04 07:12:49;;;;;;;;;;;12.00;54.80;;;;;;5162512;27;20197;-70
2022/02/04 07:19:44;;;;;;;;;;;12.00;54.70;;;;;;5162446;27;19918;-70
2022/02/04 07:20:45;;;;;;;;;;;12.00;54.70;;;;;;5161632;27;20381;-71
2022/02/04 07:23:10;;;;;;;;;;;12.00;54.60;;;;;;5162334;27;19911;-70
2022/02/04 07:25:36;;;;;;;;;;;12.00;54.70;;;;;;5162142;27;20128;-70
2022/02/04 07:28:01;;;;;;;;;;;12.00;54.80;;;;;;5143704;27;20099;-70
2022/02/04 07:30:28;;;;;;;;;;;12.00;54.70;;;;;;5161677;27;19903;-70
2022/02/04 07:33:05;;;;;;;;;;;12.00;54.80;;;;;;5162021;27;20109;-70
2022/02/04 07:38:34;;;;;;;;;;;12.00;54.80;;;;;;5162028;27;19942;-70
2022/02/04 07:41:05;;;;;;;;;;;12.00;54.80;;;;;;5161981;27;20239;-69
2022/02/04 07:43:31;;;;;;;;;;;12.00;54.80;;;;;;5162238;27;19942;-70
2022/02/04 07:45:57;;;;;;;;;;;12.00;54.70;;;;;;5161892;27;19941;-69
2022/02/04 07:48:23;;;;;;;;;;;12.00;54.70;;;;;;5161852;27;19967;-70
2022/02/04 07:50:49;;;;;;;;;;;12.00;54.60;;;;;;5161846;27;19938;-68
2022/02/04 07:53:15;;;;;;;;;;;12.00;54.60;;;;;;5161718;27;19911;-69
2022/02/04 07:55:41;;;;;;;;;;;12.10;54.60;;;;;;5161806;27;19911;-69
2022/02/04 07:58:08;;;;;;;;;;;12.00;54.40;;;;;;5161670;27;20020;-69
2022/02/04 08:00:35;;;;;;;;;;;12.00;54.50;;;;;;5161579;27;19922;-69
2022/02/04 08:03:08;;;;;;;;;;;12.00;54.60;;;;;;5161578;27;19930;-70
2022/02/04 08:05:34;;;;;;;;;;;12.00;54.50;;;;;;5161633;27;20169;-69
2022/02/04 08:08:16;;;;;;;;;;;12.00;54.50;;;;;;5161585;27;19918;-71
2022/02/04 08:11:07;;;;;;;;;;;12.10;54.60;;;;;;5161587;27;20203;-71
2022/02/04 08:22:22;;;;;;;;;;;12.10;54.60;;;;;;5161491;27;19910;-69
2022/02/04 08:49:35;;;;;;;;;;;12.10;54.40;;;;;;5165242;27;19979;-69
2022/02/04 08:54:36;;;;;;;;;;;12.00;54.40;;;;;;5165162;27;19986;-69
2022/02/04 08:57:06;;;;;;;;;;;12.10;54.50;;;;;;5165132;27;19994;-69
2022/02/04 08:59:58;;;;;;;;;;;12.10;54.50;;;;;;5164910;27;19911;-69
2022/02/04 09:04:58;;;;;;;;;;;12.10;54.30;;;;;;5165150;27;20320;-69
2022/02/04 09:07:27;;;;;;;;;;;12.20;54.50;;;;;;5146306;27;19911;-70
2022/02/04 09:09:56;;;;;;;;;;;12.10;54.30;;;;;;5164840;27;19903;-70
2022/02/04 09:22:52;;;;;;;;;;;12.10;54.60;;;;;;5164819;27;19939;-71
2022/02/04 09:25:17;;;;;;;;;;;12.10;54.40;;;;;;5164468;27;19906;-69
2022/02/04 09:27:44;;;;;;;;;;;12.20;54.40;;;;;;5164439;27;19911;-71
2022/02/04 09:30:11;;;;;;;;;;;12.20;54.40;;;;;;5164425;27;19919;-70
2022/02/04 09:32:36;;;;;;;;;;;12.20;54.50;;;;;;5164281;27;19911;-70
2022/02/04 09:35:06;;;;;;;;;;;12.20;54.30;;;;;;5164313;27;19903;-70
2022/02/04 09:37:32;;;;;;;;;;;12.20;54.30;;;;;;5164156;27;20015;-69
2022/02/04 09:39:58;;;;;;;;;;;12.20;54.30;;;;;;5164135;27;19914;-69
2022/02/04 09:42:24;;;;;;;;;;;12.30;54.00;;;;;;5164145;27;20388;-69
2022/02/04 09:44:50;;;;;;;;;;;12.30;54.20;;;;;;5164120;27;19911;-69
2022/02/04 09:47:24;;;;;;;;;;;12.30;54.40;;;;;;5164048;27;19911;-69
2022/02/04 09:49:56;;;;;;;;;;;12.30;54.20;;;;;;5164107;27;19937;-70
2022/02/04 10:16:54;;;;;;;;;;;12.30;54.50;;;;;;5163528;27;19903;-69
2022/02/04 10:19:29;;;;;;;;;;;12.30;54.40;;;;;;5163445;27;19915;-70
2022/02/04 10:21:59;;;;;;;;;;;12.30;54.50;;;;;;5163435;27;19975;-70
2022/02/04 10:24:26;;;;;;;;;;;12.30;54.50;;;;;;5163319;27;19949;-69
2022/02/04 10:27:11;;;;;;;;;;;12.30;54.50;;;;;;5163361;27;20256;-69
2022/02/04 10:29:37;;;;;;;;;;;12.30;54.50;;;;;;5163217;27;19972;-69
2022/02/04 10:32:03;;;;;;;;;;;12.30;54.60;;;;;;5163131;27;19911;-70
2022/02/04 10:34:29;;;;;;;;;;;12.30;54.90;;;;;;5163274;27;20084;-70
2022/02/04 10:37:04;;;;;;;;;;;12.30;54.80;;;;;;5163052;27;19947;-69
2022/02/04 10:39:42;;;;;;;;;;;12.20;55.00;;;;;;5163014;27;19991;-69
2022/02/04 10:42:37;;;;;;;;;;;12.20;54.80;;;;;;5163007;27;19911;-70
2022/02/04 10:50:44;;;;;;;;;;;12.30;54.80;;;;;;5130229;27;19923;-70
2022/02/04 11:03:28;;;;;;;;;;;12.30;54.80;;;;;;5162242;27;19923;-69
2022/02/04 11:08:46;;;;;;;;;;;12.30;54.80;;;;;;5162742;27;19911;-69
2022/02/04 11:35:32;;;;;;;;;;;12.40;54.60;;;;;;5161895;27;19915;-70
2022/02/04 11:50:20;;;;;;;;;;;12.40;54.70;;;;;;5161842;27;20106;-70
2022/02/04 11:52:06;;;;;;;;;;;12.40;54.90;;;;;;5161193;27;19911;-69
2022/02/04 11:54:35;;;;;;;;;;;12.40;54.90;;;;;;5161789;27;20396;-70
2022/02/04 11:57:04;;;;;;;;;;;12.40;55.00;;;;;;5161738;27;20203;-69
2022/02/04 11:59:34;;;;;;;;;;;12.40;55.00;;;;;;5161608;27;19994;-69
2022/02/04 12:02:00;;;;;;;;;;;12.40;54.90;;;;;;5161497;27;19964;-69
2022/02/04 12:04:25;;;;;;;;;;;12.40;54.80;;;;;;5161543;27;19934;-68
2022/02/04 12:06:53;;;;;;;;;;;12.50;54.50;;;;;;5161596;27;20208;-69
2022/02/04 12:09:37;;;;;;;;;;;12.50;54.70;;;;;;5161564;27;20210;-70
2022/02/04 12:12:03;;;;;;;;;;;12.50;54.80;;;;;;5161623;27;19910;-71
2022/02/04 12:14:29;;;;;;;;;;;12.50;54.70;;;;;;5161513;27;19974;-70
2022/02/04 12:17:05;;;;;;;;;;;12.50;54.80;;;;;;5164837;27;19911;-71
2022/02/04 12:19:38;;;;;;;;;;;12.50;54.70;;;;;;5165779;27;19951;-70
2022/02/04 12:22:05;;;;;;;;;;;12.60;54.80;;;;;;5166034;27;19980;-68
2022/02/04 12:24:31;;;;;;;;;;;12.60;54.70;;;;;;5165590;27;19983;-69
2022/02/04 12:27:15;;;;;;;;;;;12.60;54.70;;;;;;5165623;27;20207;-69
2022/02/04 12:29:41;;;;;;;;;;;12.60;54.80;;;;;;5165573;27;20207;-70
2022/02/04 12:32:08;;;;;;;;;;;12.50;54.80;;;;;;5165516;27;19918;-69
2022/02/04 12:34:34;;;;;;;;;;;12.50;55.00;;;;;;5165484;27;19934;-72
2022/02/04 12:37:02;;;;;;;;;;;12.50;55.00;;;;;;5165489;27;19911;-69
2022/02/04 12:39:31;;;;;;;;;;;12.50;55.00;;;;;;5165331;27;19915;-69
2022/02/04 12:41:58;;;;;;;;;;;12.50;54.70;;;;;;5165273;27;19911;-69
2022/02/04 12:44:26;;;;;;;;;;;12.50;54.80;;;;;;5165299;27;19911;-70
2022/02/04 12:46:54;;;;;;;;;;;12.50;55.00;;;;;;5146740;27;20216;-70
2022/02/04 12:49:23;;;;;;;;;;;12.50;55.10;;;;;;5146720;27;19912;-70
2022/02/04 12:54:39;;;;;;;;;;;12.50;55.00;;;;;;5165083;27;19911;-70
2022/02/04 13:00:08;;;;;;;;;;;12.50;55.00;;;;;;5164912;27;19911;-69
2022/02/04 13:08:23;;;;;;;;;;;12.50;55.20;;;;;;5164885;27;20235;-69
2022/02/04 13:10:59;;;;;;;;;;;12.50;55.20;;;;;;5164878;27;19990;-70
2022/02/04 13:13:26;;;;;;;;;;;12.50;55.20;;;;;;5164737;27;19911;-70
2022/02/04 13:15:53;;;;;;;;;;;12.50;55.10;;;;;;5164781;27;19918;-70
2022/02/04 13:18:19;;;;;;;;;;;12.60;55.00;;;;;;5164669;27;19903;-70
2022/02/04 13:20:49;;;;;;;;;;;12.60;54.80;;;;;;5164574;27;19961;-71
2022/02/04 13:23:19;;;;;;;;;;;12.60;54.80;;;;;;5164557;27;19911;-70
2022/02/04 13:25:49;;;;;;;;;;;12.60;54.80;;;;;;5145779;27;19978;-71
2022/02/04 13:28:17;;;;;;;;;;;12.60;55.00;;;;;;5163694;27;19917;-70
2022/02/04 13:30:59;;;;;;;;;;;12.60;55.00;;;;;;5164431;27;19911;-70
2022/02/04 13:33:26;;;;;;;;;;;12.70;54.90;;;;;;5164443;27;19934;-69
2022/02/04 13:35:58;;;;;;;;;;;12.70;54.70;;;;;;5164445;27;19911;-69
2022/02/04 13:38:31;;;;;;;;;;;12.70;54.70;;;;;;5164272;27;19911;-69
2022/02/04 13:43:31;;;;;;;;;;;12.80;54.70;;;;;;5164076;27;19922;-70
2022/02/04 13:46:06;;;;;;;;;;;12.80;54.70;;;;;;5164145;27;19911;-70
2022/02/04 13:48:53;;;;;;;;;;;12.80;54.70;;;;;;5164141;27;20435;-68
2022/02/04 13:51:37;;;;;;;;;;;12.80;54.60;;;;;;5145020;27;19911;-69
2022/02/04 13:54:51;;;;;;;;;;;12.90;54.60;;;;;;5163952;27;19915;-70
2022/02/04 14:00:40;;;;;;;;;;;12.90;54.60;;;;;;5164080;27;19915;-70
2022/02/04 14:03:07;;;;;;;;;;;12.90;54.60;;;;;;5163293;27;19963;-69
2022/02/04 14:05:41;;;;;;;;;;;12.90;54.70;;;;;;5163760;27;19911;-69
2022/02/04 14:08:14;;;;;;;;;;;12.90;54.70;;;;;;5163695;27;19911;-69
2022/02/04 14:10:55;;;;;;;;;;;12.90;54.70;;;;;;5163654;27;20214;-69
2022/02/04 14:13:22;;;;;;;;;;;12.90;54.70;;;;;;5145117;27;19946;-69
2022/02/04 14:15:56;;;;;;;;;;;12.90;54.80;;;;;;5163544;27;19909;-69
2022/02/04 14:18:22;;;;;;;;;;;12.90;54.70;;;;;;5163568;27;20219;-69
2022/02/04 14:20:48;;;;;;;;;;;12.90;54.80;;;;;;5163428;27;19911;-70
2022/02/04 14:23:14;;;;;;;;;;;13.00;54.80;;;;;;5163402;27;19911;-69
2022/02/04 14:25:59;;;;;;;;;;;13.00;54.80;;;;;;5163428;27;19911;-70
2022/02/04 14:31:37;;;;;;;;;;;13.00;54.80;;;;;;5099087;28;19916;-70
2022/02/04 15:03:46;;;;;;;;;;;13.10;55.00;;;;;;5162422;27;20116;-70
2022/02/04 15:06:15;;;;;;;;;;;13.00;55.00;;;;;;5162592;27;19977;-70
2022/02/04 15:08:42;;;;;;;;;;;13.00;55.20;;;;;;5162511;27;19918;-70
2022/02/04 15:11:15;;;;;;;;;;;12.90;55.20;;;;;;5162496;27;20099;-68
2022/02/04 15:13:42;;;;;;;;;;;12.90;55.30;;;;;;5162392;27;19911;-69
2022/02/04 15:16:08;;;;;;;;;;;12.90;55.40;;;;;;5162326;27;19970;-69
2022/02/04 15:18:34;;;;;;;;;;;12.90;55.50;;;;;;5162231;27;20245;-69
2022/02/04 15:21:01;;;;;;;;;;;12.90;55.60;;;;;;5162214;27;19915;-70
2022/02/04 15:23:27;;;;;;;;;;;12.80;55.60;;;;;;5162180;27;19911;-69
2022/02/04 15:25:55;;;;;;;;;;;12.90;55.70;;;;;;5162246;27;19910;-69
2022/02/04 15:30:48;;;;;;;;;;;12.80;55.60;;;;;;5162135;27;19911;-70
2022/02/04 15:33:14;;;;;;;;;;;12.90;55.60;;;;;;5161917;27;19903;-69
2022/02/04 15:35:39;;;;;;;;;;;12.80;55.70;;;;;;5162043;27;19911;-69
2022/02/04 15:38:05;;;;;;;;;;;12.80;55.70;;;;;;5161898;27;20274;-68
2022/02/04 15:40:31;;;;;;;;;;;12.80;55.80;;;;;;5161842;27;20315;-70
2022/02/04 15:43:00;;;;;;;;;;;12.80;55.80;;;;;;5161874;27;19911;-70
2022/02/04 15:56:09;;;;;;;;;;;12.70;55.80;;;;;;5161681;27;19974;-69
2022/02/04 15:58:57;;;;;;;;;;;12.80;55.80;;;;;;5161601;27;19915;-69
2022/02/04 16:01:45;;;;;;;;;;;12.80;55.80;;;;;;5161206;27;22232;-69
2022/02/04 16:06:47;;;;;;;;;;;12.70;55.90;;;;;;5120611;28;20212;-69
2022/02/04 16:09:14;;;;;;;;;;;12.70;55.90;;;;;;5120292;28;19911;-70
2022/02/04 16:14:22;;;;;;;;;;;12.70;55.90;;;;;;5120177;28;19949;-70
2022/02/04 16:16:55;;;;;;;;;;;12.70;55.90;;;;;;5120234;28;20259;-69
2022/02/04 16:24:34;;;;;;;;;;;12.70;55.90;;;;;;5120100;28;19919;-70
2022/02/04 16:29:37;;;;;;;;;;;12.60;55.90;;;;;;5120100;28;19911;-70
2022/02/04 16:32:03;;;;;;;;;;;12.70;55.90;;;;;;5120056;28;19904;-70
2022/02/04 16:34:29;;;;;;;;;;;12.70;55.70;;;;;;5118735;28;19911;-69
2022/02/04 16:36:56;;;;;;;;;;;12.70;55.70;;;;;;5119983;28;19919;-69
2022/02/04 16:39:23;;;;;;;;;;;12.70;55.70;;;;;;5119903;28;19939;-70
2022/02/04 16:42:01;;;;;;;;;;;12.70;55.70;;;;;;5120011;28;20281;-70
2022/02/04 16:44:27;;;;;;;;;;;12.70;55.80;;;;;;5119976;28;19912;-70
2022/02/04 16:46:53;;;;;;;;;;;12.60;55.80;;;;;;5119923;28;19919;-70
2022/02/04 16:49:18;;;;;;;;;;;12.70;55.90;;;;;;5118607;28;19904;-71
2022/02/04 16:51:44;;;;;;;;;;;12.60;55.80;;;;;;5119875;28;19934;-70
2022/02/04 16:54:10;;;;;;;;;;;12.60;55.90;;;;;;5119889;28;19912;-70
2022/02/04 16:56:36;;;;;;;;;;;12.60;55.90;;;;;;5119877;28;20201;-71
2022/02/04 16:59:01;;;;;;;;;;;12.60;55.90;;;;;;5119780;28;19926;-71
2022/02/04 17:01:27;;;;;;;;;;;12.60;55.90;;;;;;5119964;27;19920;-71
2022/02/04 17:03:53;;;;;;;;;;;12.60;55.90;;;;;;5164042;27;19976;-71
2022/02/04 17:06:19;;;;;;;;;;;12.60;55.90;;;;;;5146304;27;19907;-71
2022/02/04 17:08:46;;;;;;;;;;;12.60;55.80;;;;;;5164838;27;19911;-70
2022/02/04 17:11:14;;;;;;;;;;;12.60;55.70;;;;;;5164814;27;20022;-70
2022/02/04 17:13:40;;;;;;;;;;;12.60;55.80;;;;;;5164770;27;19911;-70
2022/02/04 17:16:06;;;;;;;;;;;12.60;55.70;;;;;;5164712;27;20006;-71
2022/02/04 17:18:32;;;;;;;;;;;12.60;56.30;;;;;;5164722;27;19995;-70
2022/02/04 17:20:57;;;;;;;;;;;12.70;55.70;;;;;;5164553;27;19955;-71
2022/02/04 17:23:40;;;;;;;;;;;12.60;55.60;;;;;;5164492;27;19933;-70
2022/02/04 17:26:05;;;;;;;;;;;12.60;55.60;;;;;;5164543;27;19978;-71
2022/02/04 17:28:31;;;;;;;;;;;12.60;55.60;;;;;;5164527;27;19911;-70
2022/02/04 17:30:58;;;;;;;;;;;12.60;55.70;;;;;;5164409;27;19942;-70
2022/02/04 17:33:24;;;;;;;;;;;12.60;55.80;;;;;;5164407;27;19942;-70
2022/02/04 17:35:50;;;;;;;;;;;12.60;55.70;;;;;;5164412;27;19918;-70
2022/02/04 17:38:16;;;;;;;;;;;12.60;55.90;;;;;;5164186;27;20248;-70
2022/02/04 17:40:42;;;;;;;;;;;12.60;55.70;;;;;;5164193;27;20187;-70
2022/02/04 17:43:07;;;;;;;;;;;12.60;55.80;;;;;;5164210;27;19911;-70
2022/02/04 17:45:33;;;;;;;;;;;12.60;55.70;;;;;;5145523;27;19918;-70
2022/02/04 17:48:08;;;;;;;;;;;12.60;55.60;;;;;;5164029;27;19931;-70
2022/02/04 17:50:47;;;;;;;;;;;12.60;55.50;;;;;;5164047;27;20282;-70
2022/02/04 17:53:18;;;;;;;;;;;12.60;55.50;;;;;;5164045;27;19915;-69
2022/02/04 17:55:49;;;;;;;;;;;12.60;55.60;;;;;;5163987;27;19911;-69
2022/02/04 17:58:27;;;;;;;;;;;12.60;55.60;;;;;;5163855;27;20207;-69
2022/02/04 18:08:27;;;;;;;;;;;12.60;55.60;;;;;;5163673;27;19903;-70
2022/02/04 18:10:54;;;;;;;;;;;12.60;55.60;;;;;;5163568;27;19918;-69
2022/02/04 18:13:19;;;;;;;;;;;12.60;55.60;;;;;;5163390;27;19942;-70
2022/02/04 18:15:46;;;;;;;;;;;12.60;55.60;;;;;;5144910;27;20088;-70
2022/02/04 18:18:16;;;;;;;;;;;12.60;55.70;;;;;;5163531;27;19918;-70
2022/02/04 18:20:42;;;;;;;;;;;12.60;55.70;;;;;;5163430;27;20454;-70
2022/02/04 18:23:07;;;;;;;;;;;12.60;55.70;;;;;;5163402;27;19918;-70
2022/02/04 18:25:33;;;;;;;;;;;12.60;55.60;;;;;;5163290;27;20160;-70
2022/02/04 18:27:59;;;;;;;;;;;12.60;55.50;;;;;;5144625;27;19904;-70
2022/02/04 18:30:26;;;;;;;;;;;12.60;55.50;;;;;;5163187;27;20272;-70
2022/02/04 18:32:51;;;;;;;;;;;12.60;55.50;;;;;;5163225;27;20382;-70
2022/02/04 18:35:18;;;;;;;;;;;12.60;55.50;;;;;;5163095;27;19956;-70
2022/02/04 18:37:51;;;;;;;;;;;12.60;55.50;;;;;;5163127;27;19989;-70
2022/02/04 18:45:33;;;;;;;;;;;12.60;55.50;;;;;;5162958;27;20164;-69
2022/02/04 18:48:03;;;;;;;;;;;12.60;55.60;;;;;;5144598;27;19911;-69
2022/02/04 18:50:46;;;;;;;;;;;12.60;55.60;;;;;;5162858;27;19960;-69
2022/02/04 18:53:39;;;;;;;;;;;12.60;55.50;;;;;;5162855;27;19918;-70
2022/02/04 18:56:12;;;;;;;;;;;12.60;55.60;;;;;;5161950;27;19926;-70
2022/02/04 18:58:38;;;;;;;;;;;12.60;55.60;;;;;;5162704;27;19960;-70
2022/02/04 19:01:04;;;;;;;;;;;12.60;55.60;;;;;;5162557;27;19915;-69
2022/02/04 19:03:39;;;;;;;;;;;12.60;55.60;;;;;;5162500;27;20324;-70
2022/02/04 19:06:14;;;;;;;;;;;12.60;55.50;;;;;;5162616;27;19911;-69
2022/02/04 19:08:46;;;;;;;;;;;12.60;55.40;;;;;;5162622;27;20210;-69
2022/02/04 19:11:14;;;;;;;;;;;12.60;55.40;;;;;;5162491;27;19917;-69
2022/02/04 19:13:47;;;;;;;;;;;12.60;55.40;;;;;;5162443;27;19967;-71
2022/02/04 19:19:16;;;;;;;;;;;12.60;55.30;;;;;;5130065;27;19942;-70
2022/02/04 19:21:53;;;;;;;;;;;12.60;55.30;;;;;;5143707;27;19911;-70
2022/02/04 19:24:20;;;;;;;;;;;12.60;55.50;;;;;;5162283;27;19924;-70
2022/02/04 19:26:46;;;;;;;;;;;12.60;55.50;;;;;;5161893;27;19909;-69
2022/02/04 19:29:11;;;;;;;;;;;12.50;55.50;;;;;;5162207;27;19936;-69
2022/02/04 19:31:50;;;;;;;;;;;12.50;55.50;;;;;;5162087;27;19918;-70
2022/02/04 19:34:16;;;;;;;;;;;12.60;55.50;;;;;;5162057;27;19911;-69
2022/02/04 19:36:42;;;;;;;;;;;12.60;55.50;;;;;;5162025;27;19956;-70
2022/02/04 19:39:08;;;;;;;;;;;12.60;55.40;;;;;;5161859;27;19911;-69
2022/02/04 19:41:34;;;;;;;;;;;12.60;55.40;;;;;;5161934;27;19911;-70
2022/02/04 19:44:01;;;;;;;;;;;12.60;55.30;;;;;;5161901;27;20215;-69
2022/02/04 19:46:32;;;;;;;;;;;12.60;55.30;;;;;;5161817;27;19923;-70
2022/02/04 19:49:01;;;;;;;;;;;12.60;55.30;;;;;;5161835;27;19951;-69
2022/02/04 20:16:49;;;;;;;;;;;12.60;55.40;;;;;;5161857;27;19911;-69
2022/02/04 20:26:54;;;;;;;;;;;12.60;55.20;;;;;;5161750;27;20009;-69
2022/02/04 20:29:19;;;;;;;;;;;12.60;55.20;;;;;;5161412;27;19911;-70
2022/02/04 20:31:45;;;;;;;;;;;12.60;55.30;;;;;;5161352;27;19915;-69
2022/02/04 20:34:10;;;;;;;;;;;12.60;55.20;;;;;;5161353;27;19911;-69
2022/02/04 20:36:36;;;;;;;;;;;12.60;55.30;;;;;;5162294;27;19911;-70
2022/02/04 20:39:03;;;;;;;;;;;12.60;55.20;;;;;;5165392;27;19925;-70
2022/02/04 20:41:31;;;;;;;;;;;12.60;55.30;;;;;;5165433;27;20248;-70
2022/02/04 20:43:56;;;;;;;;;;;12.60;55.30;;;;;;5165293;27;19911;-70
2022/02/04 20:46:22;;;;;;;;;;;12.50;55.20;;;;;;5165331;27;19942;-70
2022/02/04 20:48:48;;;;;;;;;;;12.60;55.30;;;;;;5165159;27;19955;-70
2022/02/04 20:51:13;;;;;;;;;;;12.50;55.20;;;;;;5165177;27;19911;-70
2022/02/04 20:53:39;;;;;;;;;;;12.50;55.30;;;;;;5165131;27;19949;-70
2022/02/04 20:56:06;;;;;;;;;;;12.50;55.20;;;;;;5165163;27;19926;-70
2022/02/04 20:58:32;;;;;;;;;;;12.50;55.20;;;;;;5165146;27;19911;-70
2022/02/04 21:00:58;;;;;;;;;;;12.60;55.10;;;;;;5165062;27;19922;-70
2022/02/04 21:03:24;;;;;;;;;;;12.60;55.20;;;;;;5164860;27;19982;-70
2022/02/04 21:14:11;;;;;;;;;;;12.60;55.10;;;;;;5080399;28;19918;-69
2022/02/04 21:16:36;;;;;;;;;;;12.60;55.10;;;;;;5132147;27;19911;-69
2022/02/04 21:19:04;;;;;;;;;;;12.60;55.10;;;;;;5164676;27;19918;-70
2022/02/04 21:21:29;;;;;;;;;;;12.60;55.20;;;;;;5164670;27;19911;-70
2022/02/04 21:23:55;;;;;;;;;;;12.50;55.30;;;;;;5164615;27;20271;-70
2022/02/04 21:26:21;;;;;;;;;;;12.50;55.20;;;;;;5164580;27;19917;-70
2022/02/04 21:28:48;;;;;;;;;;;12.50;55.30;;;;;;5164546;27;19911;-69
2022/02/04 21:31:14;;;;;;;;;;;12.50;55.20;;;;;;5164368;27;20199;-70
2022/02/04 21:33:56;;;;;;;;;;;12.50;55.20;;;;;;5164459;27;19918;-69
2022/02/04 21:39:07;;;;;;;;;;;12.50;55.20;;;;;;5164285;27;19917;-70
2022/02/04 21:41:33;;;;;;;;;;;12.50;55.10;;;;;;5164218;27;19911;-70
2022/02/04 21:43:58;;;;;;;;;;;12.50;55.10;;;;;;5164225;27;19910;-69
2022/02/04 21:46:27;;;;;;;;;;;12.50;55.10;;;;;;5164080;27;20256;-70
2022/02/04 21:48:55;;;;;;;;;;;12.50;55.00;;;;;;5163512;27;19911;-69